< < Back
Terminal Aerodrome Forecast


Current Version              Previous Versions:   1  2  3  4  5  6  7  8  9  

Terminal Aerodrome Forecast

829
FTUS42 KFFC 161700
TAFMCN
TAF
KMCN 161735Z 1618/1718 08012G20KT P6SM SKC
     FM170000 08007KT P6SM SKC
     FM171200 08011KT P6SM SCT030 BKN250
     FM171400 10010G20KT P6SM BKN035 BKN250=

Latest METAR

070
SAUS80 KWBC 170700 RRA
MTRMCN
METAR KMCN 170653Z AUTO 00000KT 10SM CLR 06/02 A3034 RMK AO2 SLP273
T00560022 TSNO


USA.gov is the U.S. government's official web portal to all federal, state and local government web resources and services.